createdAt,value
2023-06-22T00:02:36.655Z,99707.56
2023-06-22T00:05:39.497Z,99711.75
2023-06-22T00:08:43.031Z,99714.00
2023-06-22T00:11:45.804Z,99715.88
2023-06-22T00:14:49.968Z,99721.94
2023-06-22T00:17:53.276Z,99717.34
2023-06-22T00:20:58.805Z,99716.88
2023-06-22T00:24:01.547Z,99723.44
2023-06-22T00:27:06.405Z,99722.88
2023-06-22T00:30:11.185Z,99719.78
2023-06-22T00:33:13.972Z,99728.16
2023-06-22T00:36:18.775Z,99725.59
2023-06-22T00:39:21.533Z,99722.56
2023-06-22T00:42:24.344Z,99728.09
2023-06-22T00:45:29.183Z,99722.06
2023-06-22T00:48:31.972Z,99722.66
2023-06-22T00:51:34.770Z,99716.06
2023-06-22T00:54:37.700Z,99726.72
2023-06-22T00:57:40.482Z,99716.22
2023-06-22T01:00:44.667Z,99723.00
2023-06-22T01:03:47.578Z,99713.13
2023-06-22T01:06:56.941Z,99714.72
2023-06-22T01:10:01.554Z,99713.97
2023-06-22T01:13:06.666Z,99714.03
2023-06-22T01:16:13.533Z,99710.94
2023-06-22T01:19:29.302Z,99708.25
2023-06-22T01:22:33.050Z,99704.09
2023-06-22T01:25:38.745Z,99709.84
2023-06-22T01:28:47.704Z,99713.19
2023-06-22T01:31:51.822Z,99713.78
2023-06-22T01:34:54.749Z,99718.03
2023-06-22T01:37:57.922Z,99720.81
2023-06-22T01:41:00.891Z,99722.94
2023-06-22T01:44:05.929Z,99728.41
2023-06-22T01:47:09.264Z,99728.00
2023-06-22T01:50:12.938Z,99726.63
2023-06-22T01:53:15.743Z,99726.22
2023-06-22T01:56:19.248Z,99734.75
2023-06-22T01:59:27.665Z,99725.91
2023-06-22T02:02:32.864Z,99731.56
2023-06-22T02:05:37.218Z,99733.22
2023-06-22T02:08:43.933Z,99735.22
2023-06-22T02:11:47.929Z,99739.84
2023-06-22T02:14:53.575Z,99734.63
2023-06-22T02:17:56.642Z,99735.47
2023-06-22T02:21:00.444Z,99737.44
2023-06-22T02:24:03.220Z,99739.81
2023-06-22T02:27:08.183Z,99741.25
2023-06-22T02:30:12.575Z,99752.31
2023-06-22T02:33:15.337Z,99759.97
2023-06-22T02:36:25.079Z,99745.44
2023-06-22T02:39:28.000Z,99755.59
2023-06-22T02:42:30.675Z,99753.31
2023-06-22T02:45:34.778Z,99757.91
2023-06-22T02:48:37.512Z,99753.84
2023-06-22T02:51:41.049Z,99759.09
2023-06-22T02:54:46.328Z,99763.84
2023-06-22T02:57:49.054Z,99770.41
2023-06-22T03:00:54.301Z,99765.72
2023-06-22T03:03:57.124Z,99775.81
2023-06-22T03:07:02.522Z,99777.19
2023-06-22T03:10:06.848Z,99775.34
2023-06-22T03:13:09.546Z,99778.44
2023-06-22T03:16:13.740Z,99779.97
2023-06-22T03:19:16.543Z,99782.03
2023-06-22T03:22:19.313Z,99787.88
2023-06-22T03:25:22.084Z,99792.13
2023-06-22T03:28:24.781Z,99792.78
2023-06-22T03:31:28.927Z,99796.97
2023-06-22T03:34:35.499Z,99799.19
2023-06-22T03:37:38.326Z,99796.69
2023-06-22T03:40:41.087Z,99800.56
2023-06-22T03:43:43.841Z,99811.63
2023-06-22T03:46:48.209Z,99815.03
2023-06-22T03:49:50.973Z,99812.63
2023-06-22T03:52:53.992Z,99810.78
2023-06-22T03:55:56.751Z,99815.88
2023-06-22T03:58:59.566Z,99823.91
2023-06-22T04:02:03.756Z,99821.72
2023-06-22T04:05:06.986Z,99814.84
2023-06-22T04:08:09.895Z,99823.28
2023-06-22T04:11:12.606Z,99820.25
2023-06-22T04:14:15.487Z,99821.44
2023-06-22T04:17:20.533Z,99826.09
2023-06-22T04:20:23.438Z,99826.28
2023-06-22T04:23:26.196Z,99815.28
2023-06-22T04:26:28.892Z,99828.34
2023-06-22T04:29:31.834Z,99828.22
2023-06-22T04:32:37.039Z,99831.22
2023-06-22T04:35:42.425Z,99838.28
2023-06-22T04:38:45.535Z,99828.38
2023-06-22T04:41:48.261Z,99828.56
2023-06-22T04:44:51.070Z,99827.25
2023-06-22T04:47:55.240Z,99825.91
2023-06-22T04:51:04.181Z,99830.44
2023-06-22T04:54:07.250Z,99832.66
2023-06-22T04:57:11.384Z,99825.59
2023-06-22T05:00:18.129Z,99831.03
2023-06-22T05:03:22.468Z,99826.69
2023-06-22T05:06:26.583Z,99831.56
2023-06-22T05:09:29.540Z,99827.03
2023-06-22T05:12:32.246Z,99830.41
2023-06-22T05:15:40.931Z,99829.72
2023-06-22T05:18:45.740Z,99824.69
2023-06-22T05:21:48.570Z,99825.41
2023-06-22T05:24:52.289Z,99824.41
2023-06-22T05:27:55.071Z,99818.69
2023-06-22T05:30:58.096Z,99819.41
2023-06-22T05:34:02.216Z,99822.41
2023-06-22T05:37:05.138Z,99814.34
2023-06-22T05:40:08.758Z,99823.94
2023-06-22T05:43:11.711Z,99827.13
2023-06-22T05:46:14.495Z,99835.00
2023-06-22T05:49:18.717Z,99832.50
2023-06-22T05:52:21.473Z,99840.25
2023-06-22T05:55:24.287Z,99836.69
2023-06-22T05:58:27.060Z,99835.53
2023-06-22T06:01:29.941Z,99835.38
2023-06-22T06:04:34.080Z,99837.22
2023-06-22T06:07:36.926Z,99842.25
2023-06-22T06:10:39.802Z,99845.63
2023-06-22T06:13:42.561Z,99839.25
2023-06-22T06:16:45.312Z,99841.59
2023-06-22T06:19:49.475Z,99844.63
2023-06-22T06:22:52.429Z,99843.28
2023-06-22T06:25:55.258Z,99837.75
2023-06-22T06:28:58.576Z,99826.19
2023-06-22T06:32:01.474Z,99841.13
2023-06-22T06:35:06.252Z,99841.66
2023-06-22T06:38:09.030Z,99839.28
2023-06-22T06:41:11.813Z,99838.25
2023-06-22T06:44:14.597Z,99844.00
2023-06-22T06:47:18.084Z,99839.28
2023-06-22T06:50:22.446Z,99840.13
2023-06-22T06:53:25.186Z,99841.97
2023-06-22T06:56:28.120Z,99842.66
2023-06-22T06:59:31.387Z,99842.81
2023-06-22T07:02:34.266Z,99842.66
2023-06-22T07:05:38.457Z,99843.34
2023-06-22T07:08:41.179Z,99842.50
2023-06-22T07:11:43.966Z,99848.38
2023-06-22T07:14:46.777Z,99851.88
2023-06-22T07:17:49.556Z,99854.44
2023-06-22T07:20:53.715Z,99855.75
2023-06-22T07:23:57.568Z,99853.72
2023-06-22T07:27:00.467Z,99850.75
2023-06-22T07:30:03.275Z,99858.63
2023-06-22T07:33:09.657Z,99854.44
2023-06-22T07:36:14.096Z,99855.63
2023-06-22T07:39:16.866Z,99859.97
2023-06-22T07:42:20.245Z,99859.63
2023-06-22T07:45:23.182Z,99869.22
2023-06-22T07:48:25.944Z,99864.00
2023-06-22T07:51:30.059Z,99865.69
2023-06-22T07:54:32.814Z,99872.56
2023-06-22T07:57:35.856Z,99862.00
2023-06-22T08:00:38.712Z,99868.03
2023-06-22T08:03:41.563Z,99869.06
2023-06-22T08:06:45.974Z,99877.09
2023-06-22T08:09:49.435Z,99873.41
2023-06-22T08:12:52.911Z,99870.59
2023-06-22T08:15:55.801Z,99873.28
2023-06-22T08:18:58.927Z,99874.28
2023-06-22T08:22:03.148Z,99859.97
2023-06-22T08:25:06.381Z,99862.72
2023-06-22T08:28:09.204Z,99871.41
2023-06-22T08:31:13.505Z,99868.91
2023-06-22T08:34:17.838Z,99862.53
2023-06-22T08:37:24.927Z,99865.72
2023-06-22T08:40:28.093Z,99868.56
2023-06-22T08:43:30.823Z,99870.06
2023-06-22T08:46:34.603Z,99861.88
2023-06-22T08:49:37.419Z,99864.56
2023-06-22T08:52:42.594Z,99854.47
2023-06-22T08:55:46.240Z,99850.13
2023-06-22T08:58:48.964Z,99847.28
2023-06-22T09:01:51.789Z,99859.03
2023-06-22T09:04:57.076Z,99847.09
2023-06-22T09:08:01.391Z,99842.56
2023-06-22T09:11:04.176Z,99853.13
2023-06-22T09:14:07.585Z,99845.25
2023-06-22T09:17:10.458Z,99837.88
2023-06-22T09:20:13.598Z,99848.63
2023-06-22T09:23:17.832Z,99838.91
2023-06-22T09:26:20.716Z,99845.59
2023-06-22T09:29:23.515Z,99840.56
2023-06-22T09:32:26.356Z,99826.31
2023-06-22T09:35:29.177Z,99833.66
2023-06-22T09:38:33.319Z,99825.78
2023-06-22T09:41:36.098Z,99827.97
2023-06-22T09:44:38.956Z,99816.22
2023-06-22T09:47:42.608Z,99825.28
2023-06-22T09:50:45.489Z,99814.56
2023-06-22T09:53:49.652Z,99823.28
2023-06-22T09:56:52.518Z,99809.84
2023-06-22T09:59:55.225Z,99806.16
2023-06-22T10:03:01.246Z,99806.31
2023-06-22T10:06:04.641Z,99804.47
2023-06-22T10:09:08.865Z,99807.00
2023-06-22T10:12:11.705Z,99802.47
2023-06-22T10:15:14.512Z,99795.25
2023-06-22T10:18:17.721Z,99795.59
2023-06-22T10:21:20.500Z,99802.31
2023-06-22T10:24:24.608Z,99793.72
2023-06-22T10:27:27.400Z,99793.06
2023-06-22T10:30:31.089Z,99790.56
2023-06-22T10:33:33.874Z,99782.16
2023-06-22T10:36:36.651Z,99780.66
2023-06-22T10:39:40.837Z,99779.66
2023-06-22T10:42:43.850Z,99788.53
2023-06-22T10:45:46.552Z,99790.03
2023-06-22T10:48:49.535Z,99784.50
2023-06-22T10:51:52.264Z,99786.03
2023-06-22T10:54:56.403Z,99784.34
2023-06-22T10:57:59.159Z,99783.16
2023-06-22T11:01:01.950Z,99787.34
2023-06-22T11:04:05.150Z,99788.19
2023-06-22T11:07:08.443Z,99781.00
2023-06-22T11:10:12.798Z,99781.97
2023-06-22T11:13:15.523Z,99771.56
2023-06-22T11:16:18.319Z,99774.09
2023-06-22T11:19:21.140Z,99776.25
2023-06-22T11:22:23.920Z,99774.94
2023-06-22T11:25:28.057Z,99762.16
2023-06-22T11:28:30.792Z,99769.03
2023-06-22T11:31:33.724Z,99758.47
2023-06-22T11:34:36.767Z,99760.97
2023-06-22T11:37:39.592Z,99758.09
2023-06-22T11:40:43.748Z,99755.78
2023-06-22T11:43:46.517Z,99748.19
2023-06-22T11:46:49.588Z,99751.72
2023-06-22T11:49:52.368Z,99757.09
2023-06-22T11:52:55.170Z,99758.59
2023-06-22T11:55:59.322Z,99765.81
2023-06-22T11:59:02.042Z,99767.19
2023-06-22T12:02:06.634Z,99754.41
2023-06-22T12:05:09.843Z,99756.28
2023-06-22T12:08:13.299Z,99750.38
2023-06-22T12:11:17.446Z,99746.97
2023-06-22T12:14:20.201Z,99738.44
2023-06-22T12:17:23.054Z,99733.91
2023-06-22T12:20:26.446Z,99738.09
2023-06-22T12:23:29.269Z,99738.78
2023-06-22T12:26:33.484Z,99741.28
2023-06-22T12:29:36.291Z,99733.41
2023-06-22T12:32:39.182Z,99733.22
2023-06-22T12:35:42.096Z,99730.69
2023-06-22T12:38:44.862Z,99731.53
2023-06-22T12:41:49.107Z,99736.56
2023-06-22T12:44:52.720Z,99724.63
2023-06-22T12:47:56.494Z,99721.09
2023-06-22T12:50:59.385Z,99737.53
2023-06-22T12:54:02.169Z,99725.47
2023-06-22T12:57:06.581Z,99723.44
2023-06-22T13:00:11.458Z,99731.31
2023-06-22T13:03:14.309Z,99724.41
2023-06-22T13:06:17.089Z,99713.00
2023-06-22T13:09:21.772Z,99711.16
2023-06-22T13:12:26.178Z,99714.63
2023-06-22T13:15:29.826Z,99714.63
2023-06-22T13:18:32.739Z,99712.94
2023-06-22T13:21:36.001Z,99703.84
2023-06-22T13:24:38.746Z,99706.84
2023-06-22T13:27:43.194Z,99699.84
2023-06-22T13:30:48.243Z,99696.28
2023-06-22T13:33:53.281Z,99689.91
2023-06-22T13:36:56.016Z,99696.47
2023-06-22T13:40:00.675Z,99698.00
2023-06-22T13:43:04.869Z,99700.97
2023-06-22T13:46:07.683Z,99700.31
2023-06-22T13:49:10.458Z,99697.53
2023-06-22T13:52:13.887Z,99706.19
2023-06-22T13:55:16.800Z,99691.84
2023-06-22T13:58:22.062Z,99692.28
2023-06-22T14:01:24.764Z,99690.97
2023-06-22T14:04:27.697Z,99685.16
2023-06-22T14:07:30.552Z,99674.88
2023-06-22T14:10:33.335Z,99671.53
2023-06-22T14:13:37.845Z,99687.84
2023-06-22T14:16:40.548Z,99680.19
2023-06-22T14:19:43.341Z,99676.06
2023-06-22T14:22:46.295Z,99676.22
2023-06-22T14:25:48.983Z,99674.41
2023-06-22T14:28:53.067Z,99668.34
2023-06-22T14:31:55.921Z,99669.53
2023-06-22T14:34:58.706Z,99667.31
2023-06-22T14:38:01.471Z,99665.00
2023-06-22T14:41:13.586Z,99654.25
2023-06-22T14:44:18.699Z,99648.03
2023-06-22T14:47:22.213Z,99647.00
2023-06-22T14:50:25.083Z,99650.13
2023-06-22T14:53:27.926Z,99649.97
2023-06-22T14:56:31.942Z,99655.38
2023-06-22T14:59:37.017Z,99664.19
2023-06-22T15:02:39.868Z,99656.56
2023-06-22T15:05:42.688Z,99659.16
2023-06-22T15:08:45.524Z,99665.34
2023-06-22T15:11:48.373Z,99658.47
2023-06-22T15:14:52.472Z,99660.44
2023-06-22T15:17:55.289Z,99657.75
2023-06-22T15:20:59.679Z,99650.66
2023-06-22T15:24:03.286Z,99648.25
2023-06-22T15:27:06.450Z,99653.84
2023-06-22T15:30:11.144Z,99651.75
2023-06-22T15:33:13.886Z,99656.50
2023-06-22T15:36:16.690Z,99646.25
2023-06-22T15:39:19.438Z,99643.00
2023-06-22T15:42:22.220Z,99649.56
2023-06-22T15:45:26.789Z,99647.66
2023-06-22T15:48:29.573Z,99647.59
2023-06-22T15:51:32.298Z,99650.16
2023-06-22T15:54:35.069Z,99650.50
2023-06-22T15:57:37.879Z,99654.22
2023-06-22T16:00:42.007Z,99649.75
2023-06-22T16:03:44.872Z,99653.25
2023-06-22T16:06:47.749Z,99659.97
2023-06-22T16:09:50.479Z,99655.66
2023-06-22T16:12:53.720Z,99652.63
2023-06-22T16:15:57.922Z,99654.47
2023-06-22T16:19:00.728Z,99644.72
2023-06-22T16:22:03.551Z,99652.50
2023-06-22T16:25:06.654Z,99659.56
2023-06-22T16:28:09.377Z,99655.66
2023-06-22T16:31:13.542Z,99655.84
2023-06-22T16:34:16.717Z,99654.34
2023-06-22T16:37:19.698Z,99650.06
2023-06-22T16:40:22.562Z,99654.94
2023-06-22T16:43:25.392Z,99652.44
2023-06-22T16:46:29.635Z,99657.19
2023-06-22T16:49:32.461Z,99652.94
2023-06-22T16:52:35.618Z,99651.91
2023-06-22T16:55:38.511Z,99643.28
2023-06-22T16:58:44.648Z,99640.41
2023-06-22T17:01:53.530Z,99638.47
2023-06-22T17:04:56.877Z,99639.09
2023-06-22T17:08:01.456Z,99637.59
2023-06-22T17:11:04.362Z,99633.78
2023-06-22T17:14:08.163Z,99640.75
2023-06-22T17:17:13.036Z,99635.91
2023-06-22T17:20:15.892Z,99627.50
2023-06-22T17:23:18.662Z,99634.63
2023-06-22T17:26:24.031Z,99629.59
2023-06-22T17:29:31.444Z,99638.56
2023-06-22T17:32:35.691Z,99636.19
2023-06-22T17:35:47.368Z,99639.91
2023-06-22T17:38:50.778Z,99640.28
2023-06-22T17:41:53.564Z,99637.03
2023-06-22T17:45:02.318Z,99630.00
2023-06-22T17:48:09.845Z,99634.91
2023-06-22T17:51:15.089Z,99640.13
2023-06-22T17:54:17.900Z,99636.09
2023-06-22T17:57:20.692Z,99641.53
2023-06-22T18:00:23.645Z,99640.00
2023-06-22T18:03:29.766Z,99633.94
2023-06-22T18:06:34.052Z,99628.78
2023-06-22T18:09:37.209Z,99639.22
2023-06-22T18:12:40.383Z,99633.41
2023-06-22T18:15:44.013Z,99630.69
2023-06-22T18:18:48.534Z,99631.41
2023-06-22T18:21:51.809Z,99635.09
2023-06-22T18:24:56.708Z,99630.88
2023-06-22T18:27:59.543Z,99636.44
2023-06-22T18:31:03.666Z,99637.47
2023-06-22T18:34:10.817Z,99640.13
2023-06-22T18:37:15.066Z,99638.03
2023-06-22T18:40:19.010Z,99634.31
2023-06-22T18:43:22.710Z,99637.63
2023-06-22T18:46:32.236Z,99641.16
2023-06-22T18:49:48.098Z,99642.66
2023-06-22T18:53:03.759Z,99642.84
2023-06-22T18:56:13.662Z,99640.66
2023-06-22T18:59:16.451Z,99636.63
2023-06-22T19:02:34.395Z,99641.50
2023-06-22T19:05:41.818Z,99636.97
2023-06-22T19:09:02.996Z,99640.34
2023-06-22T19:12:19.141Z,99631.78
2023-06-22T19:15:22.344Z,99631.94
2023-06-22T19:18:27.498Z,99632.94
2023-06-22T19:21:31.604Z,99631.09
2023-06-22T19:24:49.562Z,99633.09
2023-06-22T19:27:56.904Z,99637.31
2023-06-22T19:31:00.809Z,99640.00
2023-06-22T19:34:05.726Z,99635.63
2023-06-22T19:37:16.978Z,99632.66
2023-06-22T19:40:22.984Z,99635.63
2023-06-22T19:43:29.068Z,99626.75
2023-06-22T19:46:32.122Z,99629.59
2023-06-22T19:49:35.909Z,99633.28
2023-06-22T19:52:41.228Z,99635.34
2023-06-22T19:55:44.899Z,99634.31
2023-06-22T19:58:47.749Z,99629.25
2023-06-22T20:01:50.606Z,99639.34
2023-06-22T20:04:53.365Z,99638.81
2023-06-22T20:08:04.123Z,99634.81
2023-06-22T20:11:08.641Z,99646.72
2023-06-22T20:14:12.868Z,99643.53
2023-06-22T20:17:16.628Z,99643.34
2023-06-22T20:20:23.500Z,99646.03
2023-06-22T20:23:29.604Z,99645.69
2023-06-22T20:26:38.594Z,99646.72
2023-06-22T20:29:42.574Z,99657.09
2023-06-22T20:32:50.925Z,99649.72
2023-06-22T20:35:53.752Z,99651.06
2023-06-22T20:38:57.884Z,99647.72
2023-06-22T20:42:01.047Z,99647.53
2023-06-22T20:45:04.240Z,99640.69
2023-06-22T20:48:08.559Z,99641.16
2023-06-22T20:51:11.330Z,99635.31
2023-06-22T20:54:18.529Z,99632.47
2023-06-22T20:57:21.385Z,99639.00
2023-06-22T21:00:24.487Z,99646.88
2023-06-22T21:03:27.382Z,99642.34
2023-06-22T21:06:30.365Z,99637.13
2023-06-22T21:09:42.551Z,99638.13
2023-06-22T21:12:54.221Z,99635.16
2023-06-22T21:15:56.964Z,99637.97
2023-06-22T21:18:59.758Z,99633.78
2023-06-22T21:22:02.609Z,99633.97
2023-06-22T21:25:08.144Z,99629.25
2023-06-22T21:28:11.286Z,99633.44
2023-06-22T21:31:14.156Z,99633.63
2023-06-22T21:34:17.022Z,99639.63
2023-06-22T21:37:19.853Z,99632.09
2023-06-22T21:40:24.058Z,99635.78
2023-06-22T21:43:26.901Z,99635.63
2023-06-22T21:46:29.732Z,99631.41
2023-06-22T21:49:32.659Z,99629.56
2023-06-22T21:52:35.404Z,99630.25
2023-06-22T21:55:39.535Z,99625.88
2023-06-22T21:58:42.204Z,99623.72
2023-06-22T22:01:45.017Z,99624.41
2023-06-22T22:04:47.779Z,99619.38
2023-06-22T22:07:50.618Z,99602.78
2023-06-22T22:10:54.788Z,99597.41
2023-06-22T22:13:57.526Z,99600.75
2023-06-22T22:17:00.622Z,99603.78
2023-06-22T22:20:06.032Z,99599.09
2023-06-22T22:23:09.300Z,99602.78
2023-06-22T22:26:13.356Z,99603.63
2023-06-22T22:29:16.147Z,99611.16
2023-06-22T22:32:18.975Z,99611.66
2023-06-22T22:35:22.867Z,99605.63
2023-06-22T22:38:25.624Z,99601.78
2023-06-22T22:41:29.832Z,99596.06
2023-06-22T22:44:32.639Z,99585.50
2023-06-22T22:47:36.074Z,99585.16
2023-06-22T22:50:38.830Z,99581.31
2023-06-22T22:53:43.180Z,99577.47
2023-06-22T22:56:47.351Z,99577.63
2023-06-22T22:59:50.159Z,99567.22
2023-06-22T23:02:53.207Z,99565.22
2023-06-22T23:05:57.352Z,99570.91
2023-06-22T23:09:00.337Z,99565.22
2023-06-22T23:12:04.612Z,99566.91
2023-06-22T23:15:08.043Z,99560.53
2023-06-22T23:18:11.086Z,99558.88
2023-06-22T23:21:13.852Z,99554.81
2023-06-22T23:24:16.634Z,99547.97
2023-06-22T23:27:22.142Z,99560.84
2023-06-22T23:30:27.519Z,99548.97
2023-06-22T23:33:30.872Z,99544.63
2023-06-22T23:36:33.662Z,99553.16
2023-06-22T23:39:36.774Z,99549.81
2023-06-22T23:42:40.901Z,99545.59
2023-06-22T23:45:43.703Z,99549.81
2023-06-22T23:48:47.257Z,99548.28
2023-06-22T23:51:50.062Z,99542.53
2023-06-22T23:54:52.819Z,99539.38
2023-06-22T23:57:57.633Z,99538.19
